Time;durP1;ratioP1;P1;durP2;ratioP2;P2;SDS_P1;SDS_P2;PMS_P1;PMS_P2;Temp;Humidity;BMP_temperature;BMP_pressure;BME280_temperature;BME280_humidity;BME280_pressure;Samples;Min_cycle;Max_cycle;Signal;HPM_P1;HPM_P2
2023/10/19 00:01:25;;;;;;;3.10;2.80;;;8.20;99.90;;;;;;5115656;28;20191;-65
2023/10/19 00:03:55;;;;;;;3.40;3.10;;;8.20;99.90;;;;;;5115489;28;20167;-65
2023/10/19 00:06:23;;;;;;;3.35;3.05;;;8.20;99.90;;;;;;5079983;28;20058;-66
2023/10/19 00:08:50;;;;;;;3.40;3.10;;;8.20;99.90;;;;;;5097392;28;20901;-65
2023/10/19 00:11:24;;;;;;;3.55;3.25;;;8.20;99.90;;;;;;5115534;28;20122;-65
2023/10/19 00:13:59;;;;;;;3.55;3.25;;;8.20;99.90;;;;;;5115534;28;20044;-65
2023/10/19 00:16:30;;;;;;;3.22;2.95;;;8.20;99.90;;;;;;5115309;28;20062;-65
2023/10/19 00:18:59;;;;;;;3.03;2.78;;;8.10;99.90;;;;;;5097352;28;20476;-65
2023/10/19 00:21:25;;;;;;;3.20;2.97;;;8.10;99.90;;;;;;5115105;28;20552;-65
2023/10/19 00:24:04;;;;;;;4.22;3.22;;;9.10;99.90;;;;;;5096698;28;20044;-65
2023/10/19 00:26:30;;;;;;;3.65;3.35;;;8.10;99.90;;;;;;5115245;28;20039;-65
2023/10/19 00:28:57;;;;;;;2.95;2.75;;;8.00;99.90;;;;;;5115251;28;20054;-65
2023/10/19 00:31:24;;;;;;;3.45;3.15;;;8.10;99.90;;;;;;5115121;28;20039;-65
2023/10/19 00:33:54;;;;;;;3.50;3.20;;;8.00;99.90;;;;;;5114926;28;20050;-65
2023/10/19 00:36:20;;;;;;;3.63;3.33;;;8.10;99.90;;;;;;5115015;28;20043;-65
2023/10/19 00:41:29;;;;;;;3.50;3.20;;;8.10;99.90;;;;;;5114932;28;20079;-65
2023/10/19 00:46:32;;;;;;;3.80;3.50;;;8.10;99.90;;;;;;5114871;28;20045;-64
2023/10/19 00:49:02;;;;;;;3.60;3.30;;;8.10;99.90;;;;;;5114595;28;20089;-65
2023/10/19 00:52:02;;;;;;;4.20;3.90;;;8.10;99.90;;;;;;5114778;28;20067;-65
2023/10/19 00:54:42;;;;;;;3.58;3.28;;;8.10;99.90;;;;;;5114653;28;20115;-65
2023/10/19 00:57:10;;;;;;;3.53;3.22;;;8.10;99.90;;;;;;5114690;28;20433;-65
2023/10/19 00:59:54;;;;;;;4.10;3.80;;;8.10;99.90;;;;;;5113091;28;20449;-65
2023/10/19 01:02:28;;;;;;;3.85;3.50;;;8.00;99.90;;;;;;5114558;28;20031;-64
2023/10/19 01:04:56;;;;;;;3.50;3.20;;;8.10;99.90;;;;;;5114096;28;20058;-65
2023/10/19 01:07:30;;;;;;;3.90;3.60;;;8.20;99.90;;;;;;5114422;28;20433;-65
2023/10/19 01:10:05;;;;;;;3.78;3.47;;;8.10;99.90;;;;;;5096226;28;20044;-64
2023/10/19 01:15:06;;;;;;;3.63;3.33;;;8.10;99.90;;;;;;5114315;28;20092;-65
2023/10/19 01:17:38;;;;;;;3.60;3.30;;;8.10;99.90;;;;;;5113713;28;20042;-65
2023/10/19 01:20:48;;;;;;;3.83;3.53;;;8.10;99.90;;;;;;5114261;28;20444;-65
2023/10/19 01:23:20;;;;;;;3.78;3.47;;;8.10;99.90;;;;;;5111636;28;20050;-65
2023/10/19 01:28:28;;;;;;;3.85;3.55;;;8.10;99.90;;;;;;5113959;28;20062;-65
2023/10/19 01:30:54;;;;;;;4.40;4.10;;;8.10;99.90;;;;;;5095764;28;20537;-65
2023/10/19 01:33:24;;;;;;;3.80;3.50;;;8.10;99.90;;;;;;5113703;28;20039;-65
2023/10/19 01:38:34;;;;;;;3.75;3.45;;;8.10;99.90;;;;;;5113940;28;20043;-64
2023/10/19 01:41:13;;;;;;;3.80;3.50;;;8.10;99.90;;;;;;5113911;28;20114;-64
2023/10/19 01:43:46;;;;;;;3.60;3.30;;;8.10;99.90;;;;;;5113859;28;20046;-64
2023/10/19 01:46:35;;;;;;;3.78;3.47;;;8.10;99.90;;;;;;5113797;28;20079;-64
2023/10/19 01:49:03;;;;;;;3.90;3.60;;;8.10;99.90;;;;;;5113483;28;20046;-64
2023/10/19 01:51:32;;;;;;;3.80;3.33;;;8.00;99.90;;;;;;5113736;28;20043;-64
2023/10/19 01:54:00;;;;;;;4.45;4.05;;;8.10;99.90;;;;;;5113391;28;20092;-64
2023/10/19 01:56:26;;;;;;;3.78;3.47;;;8.10;99.90;;;;;;5095050;28;20047;-65
2023/10/19 01:58:54;;;;;;;3.50;3.25;;;8.10;99.90;;;;;;5113668;28;20028;-64
2023/10/19 02:03:58;;;;;;;4.00;3.60;;;8.30;99.90;;;;;;5113610;28;20116;-64
2023/10/19 02:06:29;;;;;;;4.15;3.75;;;8.10;99.90;;;;;;5072997;28;20056;-64
2023/10/19 02:09:00;;;;;;;3.90;3.60;;;8.10;99.90;;;;;;5071499;28;20393;-64
2023/10/19 02:11:28;;;;;;;3.65;3.35;;;8.10;99.90;;;;;;5072737;28;20037;-64
2023/10/19 02:13:55;;;;;;;3.92;3.63;;;8.10;99.90;;;;;;5072927;28;20119;-64
2023/10/19 02:16:25;;;;;;;;;;;8.10;99.90;;;;;;5073053;28;20463;-64
2023/10/19 02:18:51;;;;;;;3.65;3.35;;;8.10;99.90;;;;;;5072970;28;19963;-64
2023/10/19 02:21:22;;;;;;;3.35;3.05;;;8.10;99.90;;;;;;5072640;28;20032;-64
2023/10/19 02:23:51;;;;;;;3.63;3.33;;;8.10;99.90;;;;;;5072651;28;20041;-64
2023/10/19 02:26:19;;;;;;;3.60;3.28;;;8.10;99.90;;;;;;5072859;28;20321;-64
2023/10/19 02:28:52;;;;;;;3.05;2.75;;;8.10;99.90;;;;;;5073375;28;20119;-64
2023/10/19 02:31:19;;;;;;;3.28;3.00;;;8.10;99.90;;;;;;5076872;28;20094;-64
2023/10/19 02:33:46;;;;;;;3.50;3.20;;;8.10;99.90;;;;;;5076574;28;20044;-64
2023/10/19 02:36:15;;;;;;;3.15;2.95;;;8.10;99.90;;;;;;5076661;28;20094;-64
2023/10/19 02:38:44;;;;;;;3.10;2.90;;;8.10;99.90;;;;;;5076927;28;20119;-65
2023/10/19 02:41:10;;;;;;;3.15;2.95;;;8.20;99.90;;;;;;5076457;28;20403;-64
2023/10/19 02:43:40;;;;;;;3.08;2.88;;;8.20;99.90;;;;;;5075394;28;20044;-64
2023/10/19 02:46:06;;;;;;;3.45;3.15;;;8.20;99.90;;;;;;5076539;28;20036;-64
2023/10/19 02:48:32;;;;;;;3.72;3.42;;;8.10;99.90;;;;;;5075004;28;20119;-64
2023/10/19 02:51:05;;;;;;;3.28;3.08;;;8.10;99.90;;;;;;5076211;28;20459;-65
2023/10/19 02:53:32;;;;;;;3.10;2.90;;;8.10;99.90;;;;;;5076409;28;20041;-66
2023/10/19 02:56:01;;;;;;;3.15;2.95;;;8.20;99.90;;;;;;5076276;28;20052;-65
2023/10/19 02:58:28;;;;;;;3.03;2.72;;;8.20;99.90;;;;;;5076321;28;20404;-65
2023/10/19 03:00:54;;;;;;;3.50;3.20;;;8.30;99.90;;;;;;5076396;28;20046;-64
2023/10/19 03:03:20;;;;;;;3.00;2.80;;;8.10;99.90;;;;;;5076212;28;20121;-64
2023/10/19 03:05:46;;;;;;;3.30;3.00;;;8.30;99.90;;;;;;5106434;28;20109;-64
2023/10/19 03:08:15;;;;;;;3.30;3.00;;;8.20;99.90;;;;;;5116500;28;20053;-64
2023/10/19 03:10:44;;;;;;;3.35;3.05;;;8.20;99.90;;;;;;5116724;28;20467;-64
2023/10/19 03:13:09;;;;;;;3.13;2.85;;;8.20;99.90;;;;;;5116729;28;20074;-64
2023/10/19 03:15:35;;;;;;;2.92;2.72;;;8.20;99.90;;;;;;5116527;28;20067;-64
2023/10/19 03:18:04;;;;;;;2.55;2.35;;;8.20;99.90;;;;;;5116758;28;20031;-64
2023/10/19 03:20:33;;;;;;;2.72;2.53;;;8.20;99.90;;;;;;5116491;28;20038;-64
2023/10/19 03:23:01;;;;;;;2.75;2.55;;;8.10;99.90;;;;;;5116543;28;20036;-64
2023/10/19 03:28:11;;;;;;;2.80;2.60;;;8.20;99.90;;;;;;5116045;28;20039;-64
2023/10/19 03:30:40;;;;;;;2.40;2.20;;;8.20;99.90;;;;;;5116347;28;20040;-64
2023/10/19 03:33:09;;;;;;;2.13;2.03;;;8.20;99.90;;;;;;5116057;28;20126;-64
2023/10/19 03:35:41;;;;;;;2.65;2.38;;;8.20;99.90;;;;;;5097684;28;20138;-64
2023/10/19 03:38:14;;;;;;;3.05;2.75;;;8.20;99.90;;;;;;5116231;28;20035;-64
2023/10/19 03:40:40;;;;;;;2.70;2.50;;;8.30;99.90;;;;;;5115652;28;20472;-64
2023/10/19 03:43:16;;;;;;;2.60;2.40;;;8.30;99.90;;;;;;5116142;28;20046;-64
2023/10/19 03:45:47;;;;;;;2.67;2.47;;;8.30;99.90;;;;;;5080997;28;20040;-64
2023/10/19 03:48:13;;;;;;;2.30;2.10;;;8.20;99.90;;;;;;5115786;28;20457;-64
2023/10/19 03:50:39;;;;;;;2.50;2.30;;;8.30;99.90;;;;;;5116161;28;20039;-64
2023/10/19 03:53:04;;;;;;;2.30;2.10;;;8.30;99.90;;;;;;5115878;28;20039;-64
2023/10/19 03:55:30;;;;;;;2.40;2.20;;;8.30;99.90;;;;;;5115729;28;20036;-64
2023/10/19 03:57:56;;;;;;;2.70;2.50;;;8.30;99.90;;;;;;5097613;28;20487;-64
2023/10/19 04:00:27;;;;;;;2.30;2.10;;;8.30;99.90;;;;;;5115805;28;20372;-64
2023/10/19 04:02:53;;;;;;;;;;;8.30;99.90;;;;;;5115871;28;20048;-64
2023/10/19 04:05:28;;;;;;;1.98;1.88;;;8.30;99.90;;;;;;5115297;28;19927;-64
2023/10/19 04:07:57;;;;;;;1.90;1.80;;;8.30;99.90;;;;;;5115306;28;20063;-64
2023/10/19 04:13:01;;;;;;;2.00;1.90;;;8.40;99.90;;;;;;5115604;28;20047;-64
2023/10/19 04:15:29;;;;;;;2.40;2.20;;;8.40;99.90;;;;;;5115361;28;20466;-64
2023/10/19 04:17:56;;;;;;;1.65;1.55;;;8.40;99.90;;;;;;5115437;28;20092;-64
2023/10/19 04:22:50;;;;;;;2.25;2.05;;;8.40;99.90;;;;;;5115105;28;20399;-64
2023/10/19 04:25:18;;;;;;;1.80;1.70;;;8.30;99.90;;;;;;5115299;28;20043;-65
2023/10/19 04:27:45;;;;;;;1.80;1.70;;;8.40;99.90;;;;;;5096958;28;20503;-66
2023/10/19 04:30:21;;;;;;;2.00;1.80;;;8.40;99.90;;;;;;5114932;28;20039;-65
2023/10/19 04:32:49;;;;;;;2.33;2.13;;;8.40;99.90;;;;;;5096939;28;20391;-66
2023/10/19 04:35:21;;;;;;;2.40;2.20;;;8.40;99.90;;;;;;5096523;28;20053;-65
2023/10/19 04:37:53;;;;;;;1.63;1.52;;;8.40;99.90;;;;;;5114987;28;20043;-69
2023/10/19 04:40:19;;;;;;;1.60;1.50;;;8.40;99.90;;;;;;5096551;28;20114;-70
2023/10/19 04:42:46;;;;;;;2.00;1.90;;;8.40;99.90;;;;;;5096353;28;20031;-72
2023/10/19 04:45:12;;;;;;;1.80;1.70;;;8.40;99.90;;;;;;5096308;28;20036;-68
2023/10/19 04:47:38;;;;;;;1.60;1.50;;;8.40;99.90;;;;;;5096588;28;20542;-65
2023/10/19 04:50:05;;;;;;;1.73;1.63;;;8.40;99.90;;;;;;5114578;28;20036;-65
2023/10/19 04:52:32;;;;;;;1.60;1.50;;;8.40;99.90;;;;;;5113455;28;20031;-65
2023/10/19 04:54:58;;;;;;;1.58;1.48;;;8.40;99.90;;;;;;5114640;28;20047;-65
2023/10/19 04:57:25;;;;;;;1.73;1.63;;;8.40;99.90;;;;;;5114317;28;20092;-65
2023/10/19 04:59:51;;;;;;;1.70;1.60;;;8.70;99.90;;;;;;5114600;28;20036;-65
2023/10/19 05:02:17;;;;;;;1.70;1.60;;;8.40;99.90;;;;;;5114714;28;20095;-65
2023/10/19 05:04:43;;;;;;;1.70;1.60;;;8.50;99.90;;;;;;5114292;28;20052;-65
2023/10/19 05:07:12;;;;;;;1.30;1.20;;;8.50;99.90;;;;;;5114498;28;20129;-65
2023/10/19 05:09:39;;;;;;;1.70;1.60;;;8.50;99.90;;;;;;5114397;28;20168;-65
2023/10/19 05:12:09;;;;;;;1.58;1.48;;;8.50;99.90;;;;;;5114067;28;20095;-65
2023/10/19 05:14:35;;;;;;;1.42;1.33;;;8.50;99.90;;;;;;5114326;28;20118;-65
2023/10/19 05:17:04;;;;;;;1.70;1.60;;;8.50;99.90;;;;;;5114313;28;20047;-65
2023/10/19 05:19:31;;;;;;;1.65;1.55;;;8.50;99.90;;;;;;5114280;28;20047;-64
2023/10/19 05:21:57;;;;;;;1.42;1.33;;;8.50;99.90;;;;;;5114191;28;20043;-64
2023/10/19 05:24:22;;;;;;;1.60;1.50;;;8.50;99.90;;;;;;5114170;28;20402;-64
2023/10/19 05:26:48;;;;;;;1.80;1.70;;;8.50;99.90;;;;;;5114120;28;20071;-64
2023/10/19 05:29:14;;;;;;;1.80;1.70;;;8.50;99.90;;;;;;5114028;28;20040;-64
2023/10/19 05:31:39;;;;;;;1.80;1.70;;;8.50;99.90;;;;;;5114087;28;20023;-64
2023/10/19 05:34:05;;;;;;;2.10;1.55;;;8.50;99.90;;;;;;5113946;28;20043;-64
2023/10/19 05:36:32;;;;;;;1.88;1.63;;;8.50;99.90;;;;;;5113909;28;20046;-64
2023/10/19 05:38:58;;;;;;;1.63;1.52;;;8.50;99.90;;;;;;5113907;28;20522;-64
2023/10/19 05:41:23;;;;;;;1.50;1.40;;;8.50;99.90;;;;;;5113823;28;20114;-68
2023/10/19 05:43:49;;;;;;;1.30;1.20;;;8.50;99.90;;;;;;5113793;28;20043;-64
2023/10/19 05:46:18;;;;;;;2.33;1.55;;;8.50;99.90;;;;;;5113793;28;20047;-66
2023/10/19 05:48:45;;;;;;;1.45;1.35;;;8.50;99.90;;;;;;5113580;28;20101;-65
2023/10/19 05:51:11;;;;;;;1.15;1.13;;;8.50;99.90;;;;;;5113464;28;20069;-65
2023/10/19 05:53:37;;;;;;;1.45;1.35;;;8.50;99.90;;;;;;5113447;28;20039;-65
2023/10/19 05:56:03;;;;;;;1.40;1.30;;;8.50;99.90;;;;;;5113581;28;20048;-65
2023/10/19 05:58:28;;;;;;;1.25;1.15;;;8.50;99.90;;;;;;5113638;28;20036;-65
2023/10/19 06:00:58;;;;;;;1.40;1.30;;;8.50;99.90;;;;;;5113324;28;20036;-65
2023/10/19 06:03:24;;;;;;;1.23;1.15;;;8.50;99.90;;;;;;5113439;28;20050;-67
2023/10/19 06:05:50;;;;;;;1.35;1.25;;;8.50;99.90;;;;;;5113159;28;20403;-66
2023/10/19 06:08:15;;;;;;;1.52;1.42;;;8.50;99.90;;;;;;5113539;28;20031;-66
2023/10/19 06:10:42;;;;;;;1.33;1.23;;;8.50;99.90;;;;;;5113435;28;20475;-65
2023/10/19 06:13:11;;;;;;;1.02;1.02;;;8.50;99.90;;;;;;5113489;28;20360;-65
2023/10/19 06:15:37;;;;;;;1.40;1.30;;;9.00;99.90;;;;;;5113403;28;20040;-65
2023/10/19 06:18:03;;;;;;;1.17;1.08;;;8.60;99.90;;;;;;5113154;28;20114;-65
2023/10/19 06:20:29;;;;;;;1.30;1.20;;;8.50;99.90;;;;;;5113445;28;20122;-64
2023/10/19 06:22:56;;;;;;;1.33;1.23;;;8.60;99.90;;;;;;5094926;28;20520;-64
2023/10/19 06:25:24;;;;;;;1.40;1.30;;;8.60;99.90;;;;;;5113179;28;20047;-64
2023/10/19 06:27:51;;;;;;;1.40;1.30;;;8.60;99.90;;;;;;5113397;28;20479;-64
2023/10/19 06:30:18;;;;;;;1.15;1.10;;;8.50;99.90;;;;;;5113318;28;20543;-65
2023/10/19 06:32:52;;;;;;;1.20;1.20;;;8.60;99.90;;;;;;5113051;28;20124;-64
2023/10/19 06:35:19;;;;;;;1.30;1.20;;;8.60;99.90;;;;;;5113261;28;20411;-65
2023/10/19 06:37:45;;;;;;;1.35;1.00;;;8.80;99.90;;;;;;5113259;28;20418;-64
2023/10/19 06:40:14;;;;;;;0.90;0.90;;;8.90;99.90;;;;;;5113263;28;20495;-65
2023/10/19 06:42:41;;;;;;;1.08;1.02;;;8.60;99.90;;;;;;5113191;28;20028;-65
2023/10/19 06:45:07;;;;;;;1.30;1.20;;;8.40;99.90;;;;;;5113221;28;20040;-65
2023/10/19 06:47:37;;;;;;;1.10;1.10;;;8.60;99.90;;;;;;5113199;28;20411;-65
2023/10/19 06:50:09;;;;;;;1.20;1.10;;;8.60;99.90;;;;;;5112895;28;20047;-65
2023/10/19 06:52:36;;;;;;;1.08;1.08;;;8.60;99.90;;;;;;5113121;28;20063;-65
2023/10/19 06:55:04;;;;;;;0.88;0.88;;;8.60;99.90;;;;;;5112808;28;20054;-65
2023/10/19 06:57:31;;;;;;;1.10;1.10;;;8.60;99.90;;;;;;5112744;28;20044;-65
2023/10/19 06:59:56;;;;;;;1.00;1.00;;;8.60;99.90;;;;;;5094901;28;20036;-65
2023/10/19 07:02:22;;;;;;;0.90;0.90;;;8.60;99.90;;;;;;5094538;28;20042;-65
2023/10/19 07:04:47;;;;;;;1.20;1.10;;;8.60;99.90;;;;;;5112610;28;20492;-64
2023/10/19 07:07:16;;;;;;;1.13;1.13;;;8.60;99.90;;;;;;5113011;28;20082;-65
2023/10/19 07:09:41;;;;;;;1.02;1.02;;;8.60;99.90;;;;;;5112890;28;20036;-64
2023/10/19 07:12:07;;;;;;;0.93;0.93;;;8.70;99.90;;;;;;5113071;28;20424;-64
2023/10/19 07:14:33;;;;;;;0.80;0.80;;;8.70;99.90;;;;;;5112830;28;20032;-64
2023/10/19 07:16:59;;;;;;;1.02;1.02;;;8.70;99.90;;;;;;5116660;28;20391;-64
2023/10/19 07:19:25;;;;;;;1.15;1.08;;;8.70;99.90;;;;;;5116168;28;20040;-64
2023/10/19 07:21:57;;;;;;;0.80;0.80;;;8.70;99.90;;;;;;5116662;28;20038;-65
2023/10/19 07:24:23;;;;;;;0.88;0.88;;;8.80;99.90;;;;;;5098198;28;20043;-66
2023/10/19 07:27:07;;;;;;;0.98;0.98;;;8.70;99.90;;;;;;5116158;28;20104;-67
2023/10/19 07:29:35;;;;;;;1.02;1.02;;;8.70;99.90;;;;;;5116393;28;20074;-65
2023/10/19 07:32:02;;;;;;;0.90;0.90;;;8.90;99.90;;;;;;5116317;28;20140;-66
2023/10/19 07:34:33;;;;;;;0.93;0.93;;;8.70;99.90;;;;;;5116212;28;20062;-66
2023/10/19 07:36:59;;;;;;;1.08;1.05;;;8.70;99.90;;;;;;5116279;28;20120;-65
2023/10/19 07:39:29;;;;;;;1.00;1.00;;;8.70;99.90;;;;;;5115908;28;20043;-66
2023/10/19 07:41:57;;;;;;;0.95;0.95;;;8.70;99.90;;;;;;5116134;28;20031;-66
2023/10/19 07:44:23;;;;;;;0.82;0.82;;;8.70;99.90;;;;;;5115818;28;20039;-66
2023/10/19 07:46:49;;;;;;;1.10;1.10;;;8.70;99.90;;;;;;5115811;28;20046;-66
2023/10/19 07:49:15;;;;;;;0.77;0.77;;;8.80;99.90;;;;;;5097500;28;20047;-65
2023/10/19 07:51:47;;;;;;;0.80;0.80;;;8.80;99.90;;;;;;5115948;28;20476;-66
2023/10/19 07:54:13;;;;;;;0.90;0.90;;;8.80;99.90;;;;;;5115889;28;20070;-66
2023/10/19 07:56:39;;;;;;;0.95;0.95;;;8.90;99.90;;;;;;5115857;28;20051;-66
2023/10/19 07:59:06;;;;;;;0.85;0.85;;;9.10;99.90;;;;;;5097623;28;20482;-66
2023/10/19 08:01:32;;;;;;;0.80;0.80;;;8.80;99.90;;;;;;5115789;28;20044;-66
2023/10/19 08:03:58;;;;;;;0.80;0.80;;;8.90;99.90;;;;;;5115459;28;20039;-66
2023/10/19 08:06:26;;;;;;;0.85;0.85;;;8.90;99.90;;;;;;5115210;28;20093;-65
2023/10/19 08:08:52;;;;;;;0.98;0.98;;;8.90;99.90;;;;;;5096926;28;20138;-66
2023/10/19 08:11:18;;;;;;;0.90;0.90;;;8.90;99.90;;;;;;5115444;28;20031;-66
2023/10/19 08:13:44;;;;;;;0.90;0.90;;;9.40;99.90;;;;;;5115455;28;20059;-66
2023/10/19 08:16:12;;;;;;;0.90;0.90;;;8.90;99.90;;;;;;5115124;28;20050;-65
2023/10/19 08:18:37;;;;;;;0.90;0.90;;;8.90;99.90;;;;;;5115437;28;20039;-65
2023/10/19 08:21:03;;;;;;;0.88;0.88;;;8.90;99.90;;;;;;5115555;28;20498;-64
2023/10/19 08:23:31;;;;;;;0.90;0.90;;;9.00;99.90;;;;;;5115010;28;20479;-65
2023/10/19 08:25:58;;;;;;;1.00;1.00;;;;;;;;;;5115195;28;20122;-64
2023/10/19 08:28:24;;;;;;;0.80;0.80;;;9.00;99.90;;;;;;5114918;28;20092;-64
2023/10/19 08:31:01;;;;;;;0.90;0.90;;;9.00;99.90;;;;;;5115195;28;20080;-66
2023/10/19 08:33:27;;;;;;;0.90;0.90;;;9.00;99.90;;;;;;5114951;28;20168;-65
2023/10/19 08:35:54;;;;;;;0.95;0.95;;;9.10;99.90;;;;;;5096308;28;20127;-66
2023/10/19 08:38:20;;;;;;;1.40;1.30;;;9.10;99.90;;;;;;5114873;28;20391;-66
2023/10/19 08:40:47;;;;;;;0.93;0.93;;;9.10;99.90;;;;;;5114808;28;20040;-66
2023/10/19 08:43:18;;;;;;;1.30;1.00;;;9.10;99.90;;;;;;5096526;28;20036;-66
2023/10/19 08:45:44;;;;;;;1.00;1.00;;;9.20;99.90;;;;;;5114748;28;20126;-66
2023/10/19 08:48:11;;;;;;;1.42;1.30;;;9.20;99.90;;;;;;5114718;28;20178;-66
2023/10/19 08:50:41;;;;;;;1.10;1.10;;;9.20;99.90;;;;;;5114701;28;20043;-66
2023/10/19 08:53:08;;;;;;;1.00;1.00;;;9.20;99.90;;;;;;5114694;28;20051;-66
2023/10/19 08:55:34;;;;;;;1.33;1.23;;;9.20;99.90;;;;;;5096309;28;20044;-65
2023/10/19 08:58:00;;;;;;;1.10;1.10;;;9.20;99.90;;;;;;5114582;28;20070;-66
2023/10/19 09:00:27;;;;;;;0.98;0.98;;;9.30;99.90;;;;;;5079258;28;20032;-66
2023/10/19 09:02:53;;;;;;;1.30;1.20;;;9.20;99.90;;;;;;5096398;28;20031;-66
2023/10/19 09:05:22;;;;;;;1.23;1.15;;;9.30;99.90;;;;;;5096069;28;20079;-66
2023/10/19 09:07:54;;;;;;;1.25;1.15;;;9.30;99.90;;;;;;5096114;28;20118;-65
2023/10/19 09:10:21;;;;;;;1.40;1.30;;;9.30;99.90;;;;;;5114430;28;20088;-65
2023/10/19 09:12:59;;;;;;;1.30;1.20;;;9.40;99.90;;;;;;5114108;28;20119;-66
2023/10/19 09:15:26;;;;;;;1.40;1.30;;;9.40;99.90;;;;;;5114272;28;20043;-66
2023/10/19 09:17:54;;;;;;;1.08;1.08;;;9.40;99.90;;;;;;5114056;28;20118;-66
2023/10/19 09:20:27;;;;;;;1.27;1.20;;;9.40;99.90;;;;;;5114299;28;20046;-65
2023/10/19 09:22:57;;;;;;;1.20;1.20;;;9.40;99.90;;;;;;5114266;28;20046;-66
2023/10/19 09:25:23;;;;;;;1.10;1.10;;;9.40;99.90;;;;;;5114199;28;20104;-66
2023/10/19 09:27:49;;;;;;;1.20;1.20;;;9.40;99.90;;;;;;5114134;28;20433;-65
2023/10/19 09:30:19;;;;;;;1.15;1.15;;;9.40;99.90;;;;;;5114120;28;20036;-65
2023/10/19 09:32:48;;;;;;;1.30;1.20;;;9.40;99.90;;;;;;5114063;28;20407;-64
2023/10/19 09:35:15;;;;;;;1.63;1.52;;;9.50;99.90;;;;;;5113620;28;20126;-64
2023/10/19 09:37:44;;;;;;;1.52;1.42;;;9.50;99.90;;;;;;5113258;28;20040;-64
2023/10/19 09:40:13;;;;;;;1.30;1.20;;;9.50;99.90;;;;;;5095673;28;20046;-64
2023/10/19 09:42:46;;;;;;;1.30;1.20;;;9.50;99.90;;;;;;5113598;28;20038;-65
2023/10/19 09:45:13;;;;;;;1.40;1.20;;;9.50;99.90;;;;;;5113861;28;20086;-65
2023/10/19 09:47:45;;;;;;;1.35;1.25;;;9.50;99.90;;;;;;5113614;28;20395;-65
2023/10/19 09:50:11;;;;;;;1.40;1.30;;;9.50;99.90;;;;;;5113806;28;20047;-65
2023/10/19 09:52:39;;;;;;;1.10;1.10;;;9.50;99.90;;;;;;5113425;28;20395;-65
2023/10/19 09:55:14;;;;;;;1.10;1.10;;;9.50;99.90;;;;;;5095469;28;20070;-65
2023/10/19 09:57:51;;;;;;;1.25;1.15;;;9.60;99.90;;;;;;5113635;28;20440;-65
2023/10/19 10:00:23;;;;;;;1.40;1.30;;;9.60;99.90;;;;;;5113476;28;20391;-65
2023/10/19 10:02:49;;;;;;;1.35;1.25;;;9.60;99.90;;;;;;5095452;28;20043;-65
2023/10/19 10:05:37;;;;;;;1.45;1.35;;;9.60;99.90;;;;;;5113315;28;20063;-65
2023/10/19 10:08:18;;;;;;;2.78;1.45;;;9.60;99.90;;;;;;5103578;28;20519;-65
2023/10/19 10:10:48;;;;;;;1.60;1.50;;;9.60;99.90;;;;;;5113570;28;20100;-65
2023/10/19 10:13:35;;;;;;;1.20;1.20;;;9.80;99.90;;;;;;5113217;28;20043;-65
2023/10/19 10:16:01;;;;;;;1.45;1.35;;;9.70;99.90;;;;;;5113472;28;20460;-67
2023/10/19 10:18:31;;;;;;;1.50;1.40;;;9.70;99.90;;;;;;5113514;28;20506;-67
2023/10/19 10:21:15;;;;;;;1.58;1.48;;;9.80;99.90;;;;;;5113165;28;20079;-65
2023/10/19 10:23:47;;;;;;;1.42;1.33;;;9.90;99.90;;;;;;5095091;28;20042;-65
2023/10/19 10:26:14;;;;;;;1.58;1.48;;;9.90;99.90;;;;;;5113412;28;20118;-65
2023/10/19 10:28:40;;;;;;;1.45;1.35;;;9.90;99.90;;;;;;5113108;28;20050;-66
2023/10/19 10:31:13;;;;;;;1.55;1.45;;;10.50;99.90;;;;;;5113393;28;20079;-65
2023/10/19 10:33:47;;;;;;;1.30;1.20;;;10.00;99.90;;;;;;5113307;28;20040;-66
2023/10/19 10:36:15;;;;;;;1.50;1.40;;;10.10;99.90;;;;;;5112917;28;20040;-66
2023/10/19 10:38:41;;;;;;;1.45;1.35;;;10.10;99.90;;;;;;5113354;28;20483;-66
2023/10/19 10:41:10;;;;;;;1.58;1.48;;;10.10;99.90;;;;;;5094921;28;20078;-65
2023/10/19 10:43:55;;;;;;;1.58;1.48;;;10.30;99.90;;;;;;5112988;28;20040;-65
2023/10/19 10:46:23;;;;;;;1.60;1.50;;;10.30;99.90;;;;;;5112844;28;20075;-65
2023/10/19 10:48:49;;;;;;;1.88;1.52;;;10.30;99.90;;;;;;5094643;28;20048;-65
2023/10/19 10:51:18;;;;;;;1.85;1.75;;;10.30;99.90;;;;;;5097776;28;20046;-65
2023/10/19 10:53:47;;;;;;;1.60;1.50;;;10.40;99.90;;;;;;5117157;28;20118;-65
2023/10/19 10:56:13;;;;;;;1.80;1.70;;;10.10;99.90;;;;;;5098594;28;20039;-66
2023/10/19 10:58:38;;;;;;;1.73;1.60;;;10.60;99.90;;;;;;5116765;28;20092;-65
2023/10/19 11:01:06;;;;;;;1.58;1.48;;;10.90;99.90;;;;;;5116577;28;20071;-65
2023/10/19 11:03:31;;;;;;;1.63;1.52;;;10.60;99.90;;;;;;5116732;28;20063;-66
2023/10/19 11:06:07;;;;;;;1.75;1.65;;;10.80;99.90;;;;;;5116257;28;20538;-66
2023/10/19 11:08:34;;;;;;;1.45;1.35;;;10.60;99.90;;;;;;5116354;28;20043;-66
2023/10/19 11:11:10;;;;;;;1.55;1.45;;;10.60;99.90;;;;;;5098157;28;20089;-66
2023/10/19 11:13:38;;;;;;;1.33;1.23;;;11.40;99.90;;;;;;5116668;28;20046;-66
2023/10/19 11:16:05;;;;;;;1.70;1.60;;;10.60;99.90;;;;;;5116639;28;20039;-66
2023/10/19 11:18:35;;;;;;;1.48;1.38;;;10.60;99.90;;;;;;5098238;28;20043;-67
2023/10/19 11:21:07;;;;;;;1.67;1.58;;;10.60;99.90;;;;;;5116409;28;20043;-67
2023/10/19 11:23:46;;;;;;;1.50;1.40;;;10.60;99.90;;;;;;5116243;28;20074;-66
2023/10/19 11:26:14;;;;;;;1.63;1.52;;;10.60;99.90;;;;;;5116239;28;20369;-66
2023/10/19 11:28:47;;;;;;;1.45;1.35;;;10.60;99.90;;;;;;5116514;28;20534;-65
2023/10/19 11:31:19;;;;;;;1.50;1.40;;;10.60;99.90;;;;;;5116433;28;20048;-66
2023/10/19 11:33:48;;;;;;;2.38;1.50;;;10.60;99.90;;;;;;5116381;28;20384;-66
2023/10/19 11:36:14;;;;;;;1.48;1.33;;;10.50;99.90;;;;;;5116159;28;20450;-66
2023/10/19 11:38:45;;;;;;;1.40;1.30;;;10.50;99.90;;;;;;5116185;28;20038;-66
2023/10/19 11:41:14;;;;;;;1.50;1.40;;;10.50;99.90;;;;;;5116246;28;20039;-66
2023/10/19 11:43:42;;;;;;;1.58;1.48;;;10.50;99.90;;;;;;5116095;28;20454;-66
2023/10/19 11:46:09;;;;;;;1.48;1.38;;;10.50;99.90;;;;;;5115975;28;20478;-66
2023/10/19 11:48:36;;;;;;;1.67;1.30;;;10.50;99.90;;;;;;5115896;28;20047;-66
2023/10/19 11:51:05;;;;;;;1.65;1.55;;;10.60;99.90;;;;;;5097781;28;20046;-66
2023/10/19 11:53:34;;;;;;;1.40;1.30;;;10.60;99.90;;;;;;5115752;28;20054;-66
2023/10/19 11:56:07;;;;;;;1.50;1.40;;;10.70;99.90;;;;;;5115751;28;20109;-66
2023/10/19 11:58:44;;;;;;;1.92;1.40;;;10.70;99.90;;;;;;5115660;28;20035;-66
2023/10/19 12:01:13;;;;;;;2.28;1.50;;;10.90;99.90;;;;;;5115405;28;20067;-66
2023/10/19 12:03:40;;;;;;;1.30;1.20;;;11.20;99.90;;;;;;5115634;28;20039;-66
2023/10/19 12:06:10;;;;;;;1.50;1.40;;;;;;;;;;5115158;28;20418;-66
2023/10/19 12:08:36;;;;;;;1.60;1.50;;;;;;;;;;5115562;28;20039;-66
2023/10/19 12:11:03;;;;;;;1.48;1.30;;;;;;;;;;5096939;28;20044;-66
2023/10/19 12:13:30;;;;;;;1.25;1.15;;;;;;;;;;5115147;28;20035;-66
2023/10/19 12:15:57;;;;;;;1.33;1.23;;;;;;;;;;5096824;28;20047;-66
2023/10/19 12:18:25;;;;;;;1.77;1.35;;;;;;;;;;5115351;28;20043;-66
2023/10/19 12:20:56;;;;;;;1.65;1.50;;;;;;;;;;5115289;28;20040;-66
2023/10/19 12:23:23;;;;;;;1.92;1.80;;;;;;;;;;5115396;28;20415;-66
2023/10/19 12:25:49;;;;;;;1.70;1.60;;;;;;;;;;5115363;28;20043;-66
2023/10/19 12:28:15;;;;;;;2.05;1.63;;;;;;;;;;5115264;28;20407;-66
2023/10/19 12:30:42;;;;;;;2.15;1.70;;;;;;;;;;5114961;28;20119;-66
2023/10/19 12:33:11;;;;;;;1.60;1.40;;;;;;;;;;5115206;28;20036;-66
2023/10/19 12:35:56;;;;;;;1.65;1.55;;;;;;;;;;5115009;28;20058;-66
2023/10/19 12:38:22;;;;;;;1.60;1.50;;;;;;;;;;5113948;28;20039;-66
2023/10/19 12:40:50;;;;;;;1.40;1.30;;;;;;;;;;5114769;28;20077;-66
2023/10/19 12:43:18;;;;;;;1.55;1.45;;;;;;;;;;5114982;28;20040;-66
2023/10/19 12:45:50;;;;;;;1.40;1.30;;;;;;;;;;5114953;28;20051;-66
2023/10/19 12:48:16;;;;;;;2.88;1.60;;;;;;;;;;5114589;28;20050;-66
2023/10/19 12:50:42;;;;;;;1.38;1.33;;;;;;;;;;5114875;28;20147;-66
2023/10/19 12:53:09;;;;;;;1.33;1.20;;;;;;;;;;5096788;28;20395;-66
2023/10/19 12:55:37;;;;;;;1.40;1.30;;;;;;;;;;5114413;28;20043;-66
2023/10/19 12:58:07;;;;;;;1.20;1.20;;;;;;;;;;5114698;28;20104;-66
2023/10/19 13:00:40;;;;;;;2.42;1.50;;;;;;;;;;5114644;28;20092;-66
2023/10/19 13:03:08;;;;;;;1.20;1.10;;;;;;;;;;5114754;28;20043;-64
2023/10/19 13:05:34;;;;;;;1.65;1.55;;;;;;;;;;5114176;28;20416;-65
2023/10/19 13:08:01;;;;;;;2.15;1.52;;;;;;;;;;5096280;28;20050;-65
2023/10/19 13:10:33;;;;;;;1.63;1.52;;;;;;;;;;5114472;28;20047;-64
2023/10/19 13:13:03;;;;;;;1.80;1.40;;;;;;;;;;5113752;28;20045;-64
2023/10/19 13:15:30;;;;;;;1.88;1.77;;;;;;;;;;5113154;28;20090;-64
2023/10/19 13:17:58;;;;;;;1.90;1.30;;;;;;;;;;5114264;28;20433;-65
2023/10/19 13:20:25;;;;;;;1.45;1.35;;;;;;;;;;5114260;28;20036;-64
2023/10/19 13:22:51;;;;;;;2.75;1.73;;;;;;;;;;5114282;28;20463;-64
2023/10/19 13:25:17;;;;;;;1.95;1.30;;;;;;;;;;5114156;28;20035;-65
2023/10/19 13:27:46;;;;;;;1.63;1.52;;;;;;;;;;5114190;28;20051;-65
2023/10/19 13:30:14;;;;;;;1.50;1.40;;;;;;;;;;5113755;28;20043;-64
2023/10/19 13:32:42;;;;;;;2.97;1.77;;;;;;;;;;5095850;28;20046;-65
2023/10/19 13:35:09;;;;;;;1.23;1.13;;;;;;;;;;5113640;28;20094;-64
2023/10/19 13:37:36;;;;;;;1.50;1.40;;;;;;;;;;5114069;28;20471;-65
2023/10/19 13:40:06;;;;;;;2.25;1.50;;;;;;;;;;5114036;28;20107;-65